Time;durP1;ratioP1;P1;durP2;ratioP2;P2;SDS_P1;SDS_P2;PMS_P1;PMS_P2;Temp;Humidity;BMP_temperature;BMP_pressure;BME280_temperature;BME280_humidity;BME280_pressure;Samples;Min_cycle;Max_cycle;Signal;HPM_P1;HPM_P2
2023/06/21 00:00:23;;;;;;;3.40;3.10;;;;;24.70;100148.00;;;;2067382;28;20209;-55
2023/06/21 00:01:24;;;;;;;3.50;3.20;;;;;24.60;100147.00;;;;2084394;28;20274;-54
2023/06/21 00:02:24;;;;;;;2.93;2.67;;;;;24.60;100143.00;;;;2084373;28;20920;-54
2023/06/21 00:03:25;;;;;;;3.10;2.80;;;;;24.60;100144.00;;;;2077125;28;20618;-54
2023/06/21 00:04:25;;;;;;;5.07;3.37;;;;;24.50;100150.00;;;;2072659;28;20214;-54
2023/06/21 00:05:26;;;;;;;2.80;2.60;;;;;24.50;100152.00;;;;2066793;28;20774;-54
2023/06/21 00:06:29;;;;;;;3.00;2.73;;;;;24.50;100147.00;;;;2078113;28;20753;-55
2023/06/21 00:07:29;;;;;;;4.32;2.95;;;;;24.50;100078.00;;;;2081993;28;20255;-54
2023/06/21 00:08:29;;;;;;;3.10;2.80;;;;;24.50;100148.00;;;;2077592;28;20594;-55
2023/06/21 00:09:30;;;;;;;3.20;2.90;;;;;24.50;100145.00;;;;2081694;28;20592;-54
2023/06/21 00:10:30;;;;;;;3.00;2.70;;;;;24.50;100145.00;;;;2058970;28;20630;-55
2023/06/21 00:11:31;;;;;;;3.13;2.80;;;;;24.50;100145.00;;;;2075365;28;20308;-54
2023/06/21 00:12:31;;;;;;;3.10;2.77;;;;;24.50;100156.00;;;;2076283;28;20241;-54
2023/06/21 00:13:32;;;;;;;3.97;3.30;;;;;24.50;100147.00;;;;2064717;28;20309;-54
2023/06/21 00:14:32;;;;;;;3.20;2.90;;;;;24.40;100154.00;;;;2075594;28;20403;-54
2023/06/21 00:15:32;;;;;;;3.53;3.23;;;;;24.40;100148.00;;;;2063184;28;20292;-54
2023/06/21 00:16:32;;;;;;;2.97;2.53;;;;;24.40;100169.00;;;;2075942;28;20217;-54
2023/06/21 00:17:33;;;;;;;2.73;2.53;;;;;24.40;100149.00;;;;2078538;28;20228;-55
2023/06/21 00:18:33;;;;;;;2.53;2.33;;;;;24.40;100076.00;;;;2078125;28;20290;-55
2023/06/21 00:19:33;;;;;;;2.57;2.37;;;;;24.40;100154.00;;;;2085627;28;20217;-54
2023/06/21 00:20:34;;;;;;;3.17;2.50;;;;;23.90;100165.00;;;;2075505;28;20280;-55
2023/06/21 00:21:34;;;;;;;4.83;3.00;;;;;24.40;100158.00;;;;2084459;28;20691;-55
2023/06/21 00:22:35;;;;;;;3.57;2.63;;;;;24.40;100153.00;;;;2079534;28;20220;-54
2023/06/21 00:23:36;;;;;;;4.13;2.92;;;;;24.40;100146.00;;;;2082039;28;20218;-54
2023/06/21 00:24:36;;;;;;;2.97;2.70;;;;;24.30;100152.00;;;;2080475;28;20632;-55
2023/06/21 00:25:37;;;;;;;4.10;2.93;;;;;24.30;100156.00;;;;2073122;28;20724;-54
2023/06/21 00:26:37;;;;;;;3.07;2.77;;;;;24.30;100152.00;;;;2082692;28;20224;-54
2023/06/21 00:27:38;;;;;;;4.07;2.80;;;;;24.30;100157.00;;;;2080259;28;20733;-54
2023/06/21 00:28:38;;;;;;;3.10;2.80;;;;;24.30;100155.00;;;;2080962;28;20860;-55
2023/06/21 00:29:39;;;;;;;3.23;2.77;;;;;24.30;100157.00;;;;2072122;28;20452;-55
2023/06/21 00:30:39;;;;;;;3.37;2.80;;;;;24.30;100154.00;;;;2083901;28;20209;-54
2023/06/21 00:31:39;;;;;;;3.27;2.80;;;;;24.30;100157.00;;;;2084703;28;20216;-55
2023/06/21 00:32:40;;;;;;;2.73;2.40;;;;;24.30;100155.00;;;;2083804;28;20302;-55
2023/06/21 00:33:40;;;;;;;2.60;2.40;;;;;24.40;100151.00;;;;2082191;28;20879;-54
2023/06/21 00:34:40;;;;;;;5.17;3.03;;;;;24.30;100154.00;;;;2067493;28;20673;-55
2023/06/21 00:35:41;;;;;;;3.00;2.70;;;;;24.30;100164.00;;;;2080622;28;20454;-54
2023/06/21 00:36:41;;;;;;;4.67;3.00;;;;;24.30;100166.00;;;;2080050;28;20217;-55
2023/06/21 00:37:42;;;;;;;3.03;2.30;;;;;24.30;100163.00;;;;2081327;28;20236;-55
2023/06/21 00:38:42;;;;;;;3.00;2.70;;;;;24.20;100160.00;;;;2084786;28;20443;-53
2023/06/21 00:39:42;;;;;;;3.70;2.80;;;;;24.20;100159.00;;;;2063066;28;20303;-58
2023/06/21 00:40:43;;;;;;;3.40;3.10;;;;;24.20;100168.00;;;;2076631;28;20253;-56
2023/06/21 00:41:43;;;;;;;3.33;2.80;;;;;24.30;100173.00;;;;2080198;28;20213;-55
2023/06/21 00:42:43;;;;;;;3.03;2.20;;;;;24.30;100177.00;;;;2080485;28;20631;-55
2023/06/21 00:43:44;;;;;;;2.90;2.70;;;;;24.30;100177.00;;;;2080976;28;20626;-53
2023/06/21 00:44:44;;;;;;;3.10;2.70;;;;;24.30;100175.00;;;;2072195;28;20927;-55
2023/06/21 00:45:48;;;;;;;3.50;3.20;;;;;24.20;100180.00;;;;2085373;28;20215;-53
2023/06/21 00:46:51;;;;;;;3.50;3.20;;;;;24.30;100176.00;;;;2081850;28;20244;-56
2023/06/21 00:47:52;;;;;;;4.13;3.08;;;;;24.30;100172.00;;;;2085491;28;20213;-54
2023/06/21 00:48:52;;;;;;;2.53;2.30;;;;;24.30;100173.00;;;;2080710;28;20209;-55
2023/06/21 00:49:52;;;;;;;4.20;3.30;;;;;24.20;100172.00;;;;2067020;28;20241;-55
2023/06/21 00:50:53;;;;;;;3.20;2.90;;;;;24.20;100174.00;;;;2077578;28;20217;-55
2023/06/21 00:51:57;;;;;;;2.67;2.27;;;;;24.20;100177.00;;;;2083536;28;20251;-55
2023/06/21 00:52:57;;;;;;;3.58;3.28;;;;;24.20;100178.00;;;;2083438;28;20209;-53
2023/06/21 00:53:57;;;;;;;2.90;2.60;;;;;24.20;100173.00;;;;2083360;28;20285;-54
2023/06/21 00:54:58;;;;;;;2.83;2.60;;;;;24.20;100187.00;;;;2069655;28;20729;-54
2023/06/21 00:56:00;;;;;;;2.60;2.40;;;;;24.20;100176.00;;;;2070689;28;20809;-54
2023/06/21 00:57:04;;;;;;;3.88;3.03;;;;;24.20;100171.00;;;;2061012;28;20211;-54
2023/06/21 00:58:04;;;;;;;3.10;2.80;;;;;24.20;100176.00;;;;2063691;28;20258;-55
2023/06/21 00:59:05;;;;;;;3.40;3.00;;;;;24.20;100182.00;;;;2082466;28;20228;-55
2023/06/21 01:00:05;;;;;;;3.20;2.90;;;;;24.20;100175.00;;;;2068900;28;20221;-55
2023/06/21 01:01:06;;;;;;;3.50;3.20;;;;;24.20;100186.00;;;;2082871;28;20244;-54
2023/06/21 01:02:06;;;;;;;3.00;2.70;;;;;24.20;100176.00;;;;2085361;28;20228;-54
2023/06/21 01:03:06;;;;;;;2.50;2.30;;;;;24.20;100177.00;;;;2077815;28;20217;-55
2023/06/21 01:04:08;;;;;;;2.90;2.60;;;;;24.20;100177.00;;;;2067068;28;20305;-55
2023/06/21 01:05:08;;;;;;;3.00;2.70;;;;;24.20;100182.00;;;;2058150;28;20298;-54
2023/06/21 01:06:27;;;;;;;9.50;3.10;;;;;24.20;100186.00;;;;2078128;28;20511;-55
2023/06/21 01:07:38;;;;;;;3.08;2.78;;;;;24.10;100184.00;;;;2073642;28;20709;-54
2023/06/21 01:09:07;;;;;;;3.20;2.90;;;;;24.10;100180.00;;;;2078401;28;20229;-54
2023/06/21 01:10:26;;;;;;;3.15;2.80;;;;;24.10;100183.00;;;;2063076;28;20919;-54
2023/06/21 01:11:28;;;;;;;3.75;2.90;;;;;24.10;100182.00;;;;2076326;28;20768;-55
2023/06/21 01:12:43;;;;;;;3.65;3.13;;;;;24.20;100195.00;;;;2069167;28;20214;-55
2023/06/21 01:14:06;;;;;;;2.88;2.67;;;;;24.10;100184.00;;;;2078585;28;20271;-55
2023/06/21 01:15:21;;;;;;;3.42;3.13;;;;;24.10;100179.00;;;;2064465;28;20273;-54
2023/06/21 01:16:21;;;;;;;4.45;2.60;;;;;24.10;100185.00;;;;2064514;28;21028;-55
2023/06/21 01:17:21;;;;;;;2.73;2.53;;;;;24.10;100178.00;;;;2068005;28;20241;-55
2023/06/21 01:18:22;;;;;;;3.20;2.90;;;;;24.10;100188.00;;;;2075778;28;20206;-55
2023/06/21 01:19:40;;;;;;;3.20;2.90;;;;;24.10;100183.00;;;;2074864;28;20228;-55
2023/06/21 01:20:40;;;;;;;3.55;3.05;;;;;24.10;100189.00;;;;2075305;28;20221;-54
2023/06/21 01:21:41;;;;;;;3.70;3.20;;;;;24.10;100188.00;;;;2077410;28;20244;-54
2023/06/21 01:23:00;;;;;;;3.30;3.00;;;;;24.10;100197.00;;;;2079419;28;20274;-55
2023/06/21 01:24:21;;;;;;;3.45;3.00;;;;;24.00;100198.00;;;;2074300;28;20237;-54
2023/06/21 01:25:57;;;;;;;2.92;2.45;;;;;24.00;100206.00;;;;2068603;28;20238;-55
2023/06/21 01:27:06;;;;;;;3.60;2.90;;;;;24.00;100189.00;;;;2070508;28;20733;-54
2023/06/21 01:28:39;;;;;;;2.45;2.25;;;;;24.00;100204.00;;;;2054088;28;20250;-54
2023/06/21 01:29:40;;;;;;;3.13;2.53;;;;;24.00;100195.00;;;;2057296;28;20312;-56
2023/06/21 01:30:40;;;;;;;4.57;3.43;;;;;24.00;100131.00;;;;2069746;28;20226;-55
2023/06/21 01:31:42;;;;;;;3.00;2.70;;;;;24.10;100208.00;;;;2060076;28;20267;-55
2023/06/21 01:32:42;;;;;;;3.70;3.10;;;;;24.00;100217.00;;;;2058894;28;20605;-54
2023/06/21 01:33:42;;;;;;;3.30;3.00;;;;;24.00;100219.00;;;;2072889;28;20702;-55
2023/06/21 01:34:43;;;;;;;3.50;3.17;;;;;24.00;100212.00;;;;2058759;28;20710;-55
2023/06/21 01:35:43;;;;;;;3.03;2.73;;;;;24.00;100207.00;;;;2071023;28;20264;-55
2023/06/21 01:36:44;;;;;;;4.00;3.20;;;;;23.90;100208.00;;;;2076332;28;20244;-55
2023/06/21 01:37:44;;;;;;;3.97;3.33;;;;;24.00;100210.00;;;;2075713;28;20225;-54
2023/06/21 01:38:44;;;;;;;3.67;3.37;;;;;24.00;100209.00;;;;2073318;28;20225;-54
2023/06/21 01:39:45;;;;;;;3.33;3.00;;;;;24.00;100132.00;;;;2059830;28;20761;-56
2023/06/21 01:40:45;;;;;;;3.83;2.70;;;;;24.00;100213.00;;;;2079803;28;20243;-56
2023/06/21 01:41:46;;;;;;;3.40;3.10;;;;;24.00;100159.00;;;;2073667;28;20755;-56
2023/06/21 01:42:46;;;;;;;3.47;3.03;;;;;24.00;100213.00;;;;2075058;28;20242;-55
2023/06/21 01:43:46;;;;;;;3.90;3.47;;;;;24.00;100217.00;;;;2072709;28;20210;-55
2023/06/21 01:44:47;;;;;;;4.03;3.13;;;;;24.00;100213.00;;;;2061524;28;20233;-55
2023/06/21 01:45:47;;;;;;;4.43;3.43;;;;;24.00;100230.00;;;;2084968;28;20295;-54
2023/06/21 01:46:51;;;;;;;3.20;2.70;;;;;23.90;100217.00;;;;2081717;28;20205;-54
2023/06/21 01:47:51;;;;;;;4.50;2.83;;;;;24.00;100216.00;;;;2076404;28;20240;-55
2023/06/21 01:48:52;;;;;;;3.70;3.30;;;;;23.90;100217.00;;;;2072474;28;20221;-54
2023/06/21 01:49:52;;;;;;;2.90;2.60;;;;;23.90;100212.00;;;;2059836;28;21167;-54
2023/06/21 01:50:52;;;;;;;3.30;3.00;;;;;23.90;100211.00;;;;2068533;28;20218;-55
2023/06/21 01:51:53;;;;;;;4.23;3.20;;;;;23.90;100217.00;;;;2068036;28;20322;-55
2023/06/21 01:52:53;;;;;;;3.77;3.37;;;;;23.90;100202.00;;;;2074938;28;20217;-55
2023/06/21 01:53:53;;;;;;;3.50;2.97;;;;;23.90;100225.00;;;;2066798;28;20222;-55
2023/06/21 01:54:54;;;;;;;3.47;3.17;;;;;23.90;100215.00;;;;2042140;28;20239;-55
2023/06/21 01:55:56;;;;;;;3.63;3.27;;;;;24.00;100218.00;;;;2055318;28;20287;-55
2023/06/21 01:56:59;;;;;;;4.70;3.50;;;;;23.90;100221.00;;;;2054900;28;20702;-55
2023/06/21 01:57:59;;;;;;;3.53;3.00;;;;;23.90;100223.00;;;;2068636;28;20302;-55
2023/06/21 01:59:01;;;;;;;9.13;3.73;;;;;23.90;100203.00;;;;2081389;28;20216;-55
2023/06/21 02:00:17;;;;;;;3.53;2.83;;;;;23.90;100223.00;;;;2060893;28;20264;-55
2023/06/21 02:01:20;;;;;;;4.50;3.47;;;;;23.90;100226.00;;;;2058468;28;20252;-55
2023/06/21 02:02:21;;;;;;;3.88;3.47;;;;;23.90;100230.00;;;;2068503;28;20222;-54
2023/06/21 02:03:22;;;;;;;5.10;3.80;;;;;23.90;100225.00;;;;2057858;28;20245;-54
2023/06/21 02:04:22;;;;;;;3.37;3.07;;;;;23.90;100221.00;;;;2064556;28;20523;-55
2023/06/21 02:05:23;;;;;;;3.37;3.07;;;;;23.90;100216.00;;;;2057187;28;20213;-54
2023/06/21 02:06:26;;;;;;;4.10;3.47;;;;;23.80;100222.00;;;;2075192;28;20556;-55
2023/06/21 02:07:26;;;;;;;3.55;3.00;;;;;23.80;100226.00;;;;2072420;28;20212;-55
2023/06/21 02:08:26;;;;;;;3.87;3.40;;;;;23.80;100209.00;;;;2053511;28;20266;-55
2023/06/21 02:09:27;;;;;;;3.83;3.43;;;;;23.90;100220.00;;;;2066896;28;20206;-55
2023/06/21 02:10:27;;;;;;;6.73;3.00;;;;;23.90;100220.00;;;;2055337;28;20658;-54
2023/06/21 02:11:28;;;;;;;3.93;3.57;;;;;23.90;100224.00;;;;2052685;28;20203;-55
2023/06/21 02:12:33;;;;;;;3.93;3.57;;;;;23.90;100223.00;;;;2057037;28;20222;-55
2023/06/21 02:13:33;;;;;;;4.40;3.75;;;;;23.90;100227.00;;;;2075285;28;20213;-54
2023/06/21 02:14:33;;;;;;;3.73;3.30;;;;;23.90;100222.00;;;;2070598;28;20213;-54
2023/06/21 02:15:34;;;;;;;3.53;3.20;;;;;23.80;100220.00;;;;2056587;28;20218;-55
2023/06/21 02:16:34;;;;;;;3.80;3.50;;;;;23.80;100229.00;;;;2078932;28;20209;-55
2023/06/21 02:17:34;;;;;;;3.70;3.20;;;;;23.80;100222.00;;;;2085079;28;20631;-55
2023/06/21 02:18:35;;;;;;;4.23;3.20;;;;;23.80;100226.00;;;;2084562;28;20224;-55
2023/06/21 02:19:37;;;;;;;3.80;3.43;;;;;23.80;100220.00;;;;2082551;28;20274;-55
2023/06/21 02:20:37;;;;;;;5.45;3.47;;;;;23.80;100231.00;;;;2071390;28;20236;-55
2023/06/21 02:21:38;;;;;;;4.20;3.40;;;;;23.80;100168.00;;;;2078572;28;20296;-55
2023/06/21 02:22:40;;;;;;;4.20;3.80;;;;;23.80;100227.00;;;;2083707;28;20598;-55
2023/06/21 02:23:40;;;;;;;4.55;3.50;;;;;23.80;100215.00;;;;2081519;28;20693;-55
2023/06/21 02:24:40;;;;;;;3.40;2.87;;;;;23.80;100220.00;;;;2066902;28;20210;-56
2023/06/21 02:25:41;;;;;;;4.00;3.60;;;;;23.80;100230.00;;;;2082832;28;20227;-55
2023/06/21 02:26:41;;;;;;;3.63;3.30;;;;;23.70;100220.00;;;;2084120;28;20224;-54
2023/06/21 02:27:41;;;;;;;4.47;3.50;;;;;23.80;100229.00;;;;2085042;28;20216;-54
2023/06/21 02:28:41;;;;;;;5.87;3.70;;;;;23.80;100228.00;;;;2081521;28;20286;-55
2023/06/21 02:29:42;;;;;;;3.57;3.27;;;;;23.80;100234.00;;;;2069272;28;20241;-55
2023/06/21 02:30:42;;;;;;;5.73;3.03;;;;;23.80;100233.00;;;;2079757;28;21213;-55
2023/06/21 02:31:43;;;;;;;3.60;3.30;;;;;23.70;100230.00;;;;2082002;28;20228;-54
2023/06/21 02:32:43;;;;;;;3.80;3.40;;;;;23.70;100229.00;;;;2076845;28;20337;-54
2023/06/21 02:33:44;;;;;;;3.33;3.00;;;;;23.70;100235.00;;;;2084557;28;20243;-54
2023/06/21 02:34:45;;;;;;;3.60;2.88;;;;;23.80;100239.00;;;;2073144;28;20575;-54
2023/06/21 02:35:45;;;;;;;4.70;3.00;;;;;23.70;100234.00;;;;2083497;28;20213;-57
2023/06/21 02:36:53;;;;;;;3.73;3.43;;;;;23.70;100241.00;;;;2081853;28;20209;-54
2023/06/21 02:37:53;;;;;;;5.78;3.72;;;;;23.70;100236.00;;;;2081062;28;20248;-53
2023/06/21 02:38:53;;;;;;;5.00;3.50;;;;;23.60;100236.00;;;;2085325;28;21152;-53
2023/06/21 02:39:57;;;;;;;4.07;3.67;;;;;23.50;100233.00;;;;2071540;28;20762;-54
2023/06/21 02:40:58;;;;;;;5.90;3.47;;;;;23.50;100236.00;;;;2081676;28;21036;-54
2023/06/21 02:41:58;;;;;;;4.40;3.40;;;;;23.40;100237.00;;;;2084676;28;20221;-54
2023/06/21 02:42:58;;;;;;;3.70;3.40;;;;;23.50;100246.00;;;;2079477;28;20208;-54
2023/06/21 02:43:59;;;;;;;3.63;3.33;;;;;23.40;100250.00;;;;2077043;28;20202;-53
2023/06/21 02:45:00;;;;;;;4.80;3.67;;;;;23.40;100244.00;;;;2070743;28;20659;-54
2023/06/21 02:46:00;;;;;;;4.90;3.77;;;;;23.30;100251.00;;;;2080330;28;20717;-53
2023/06/21 02:47:01;;;;;;;3.77;3.40;;;;;23.30;100255.00;;;;2081906;28;20212;-54
2023/06/21 02:48:01;;;;;;;4.23;3.40;;;;;23.40;100259.00;;;;2083362;28;20205;-54
2023/06/21 02:49:02;;;;;;;3.60;3.30;;;;;23.40;100260.00;;;;2084966;28;20209;-54
2023/06/21 02:50:02;;;;;;;6.50;3.70;;;;;23.40;100260.00;;;;2064784;28;20229;-53
2023/06/21 02:51:03;;;;;;;3.87;3.47;;;;;23.10;100269.00;;;;2078455;28;20217;-54
2023/06/21 02:52:04;;;;;;;4.33;3.40;;;;;23.40;100265.00;;;;2080690;28;20475;-54
2023/06/21 02:53:04;;;;;;;3.83;3.43;;;;;23.30;100271.00;;;;2076081;28;20216;-54
2023/06/21 02:54:04;;;;;;;4.93;3.60;;;;;23.30;100274.00;;;;2081160;28;20221;-54
2023/06/21 02:55:05;;;;;;;3.90;3.60;;;;;23.30;100286.00;;;;2069212;28;20351;-53
2023/06/21 02:56:05;;;;;;;5.67;3.97;;;;;23.40;100273.00;;;;2079710;28;20228;-53
2023/06/21 02:57:06;;;;;;;4.10;3.10;;;;;23.40;100269.00;;;;2077531;28;20700;-53
2023/06/21 02:58:06;;;;;;;4.40;4.00;;;;;23.40;100271.00;;;;2083603;28;20217;-54
2023/06/21 02:59:06;;;;;;;3.80;3.33;;;;;23.30;100275.00;;;;2081651;28;20680;-53
2023/06/21 03:00:18;;;;;;;4.20;3.80;;;;;23.40;100265.00;;;;2074634;28;20696;-54
2023/06/21 03:01:19;;;;;;;4.00;3.70;;;;;23.40;100269.00;;;;2068953;28;20339;-54
2023/06/21 03:02:21;;;;;;;3.60;3.30;;;;;23.40;100282.00;;;;2071306;28;20214;-53
2023/06/21 03:03:21;;;;;;;4.85;3.67;;;;;23.40;100279.00;;;;2076196;28;20217;-54
2023/06/21 03:04:21;;;;;;;3.70;3.40;;;;;23.30;100277.00;;;;2084586;28;20212;-54
2023/06/21 03:05:22;;;;;;;4.13;3.73;;;;;23.10;100285.00;;;;2068037;28;20312;-53
2023/06/21 03:06:23;;;;;;;3.87;3.53;;;;;23.40;100277.00;;;;2084112;28;20265;-54
2023/06/21 03:07:23;;;;;;;3.95;3.55;;;;;23.40;100282.00;;;;2083811;28;20213;-53
2023/06/21 03:08:25;;;;;;;3.97;3.50;;;;;23.40;100281.00;;;;2076953;28;20233;-53
2023/06/21 03:09:25;;;;;;;4.60;3.75;;;;;23.40;100284.00;;;;2077144;28;20301;-54
2023/06/21 03:10:26;;;;;;;3.50;3.20;;;;;23.30;100286.00;;;;2073394;28;20220;-53
2023/06/21 03:11:26;;;;;;;3.97;3.40;;;;;23.30;100284.00;;;;2084082;28;20201;-53
2023/06/21 03:12:27;;;;;;;3.63;3.30;;;;;23.30;100288.00;;;;2081987;28;20452;-53
2023/06/21 03:13:27;;;;;;;3.93;3.50;;;;;23.30;100288.00;;;;2077032;28;20198;-53
2023/06/21 03:14:27;;;;;;;4.10;3.70;;;;;23.30;100279.00;;;;2079187;28;20262;-53
2023/06/21 03:15:28;;;;;;;4.13;3.70;;;;;23.40;100283.00;;;;2068600;28;20242;-54
2023/06/21 03:16:29;;;;;;;4.90;3.87;;;;;23.30;100281.00;;;;2076176;28;20640;-53
2023/06/21 03:17:30;;;;;;;4.37;3.97;;;;;23.30;100278.00;;;;2074803;28;20317;-54
2023/06/21 03:18:30;;;;;;;4.18;3.60;;;;;23.30;100280.00;;;;2078104;28;20221;-54
2023/06/21 03:19:31;;;;;;;4.30;3.90;;;;;23.30;100272.00;;;;2082671;28;20213;-54
2023/06/21 03:20:31;;;;;;;4.00;3.60;;;;;23.30;100288.00;;;;2069503;28;20221;-54
2023/06/21 03:21:33;;;;;;;4.00;3.60;;;;;23.30;100286.00;;;;2077355;28;20260;-54
2023/06/21 03:22:33;;;;;;;4.47;3.53;;;;;23.20;100278.00;;;;2077057;28;20241;-53
2023/06/21 03:23:33;;;;;;;3.70;3.40;;;;;23.20;100288.00;;;;2081694;28;20221;-54
2023/06/21 03:24:34;;;;;;;5.07;4.03;;;;;23.20;100286.00;;;;2077073;28;20218;-53
2023/06/21 03:25:34;;;;;;;3.90;3.60;;;;;23.20;100290.00;;;;2071081;28;20440;-53
2023/06/21 03:26:35;;;;;;;3.93;3.53;;;;;23.30;100286.00;;;;2079884;28;20269;-54
2023/06/21 03:27:35;;;;;;;4.30;3.90;;;;;23.20;100284.00;;;;2075544;28;20213;-53
2023/06/21 03:28:36;;;;;;;4.27;3.67;;;;;23.20;100282.00;;;;2079876;28;20770;-54
2023/06/21 03:29:36;;;;;;;4.23;3.83;;;;;23.20;100287.00;;;;2085031;28;20271;-54
2023/06/21 03:30:36;;;;;;;4.90;3.57;;;;;23.20;100288.00;;;;2067865;28;20253;-54
2023/06/21 03:31:37;;;;;;;4.33;3.93;;;;;23.20;100282.00;;;;2077905;28;20225;-53
2023/06/21 03:32:46;;;;;;;5.00;4.27;;;;;23.20;100292.00;;;;2075570;28;20260;-54
2023/06/21 03:33:46;;;;;;;4.32;3.92;;;;;23.20;100299.00;;;;2079406;28;20248;-55
2023/06/21 03:34:47;;;;;;;4.03;3.37;;;;;23.20;100287.00;;;;2071188;28;20205;-54
2023/06/21 03:35:47;;;;;;;5.57;4.33;;;;;23.10;100326.00;;;;2083550;28;20205;-55
2023/06/21 03:36:48;;;;;;;4.67;3.30;;;;;23.10;100288.00;;;;2083250;28;20209;-54
2023/06/21 03:37:48;;;;;;;4.20;3.80;;;;;23.20;100297.00;;;;2085026;28;20211;-54
2023/06/21 03:38:48;;;;;;;4.07;3.67;;;;;23.20;100296.00;;;;2086615;28;20204;-54
2023/06/21 03:39:49;;;;;;;3.93;3.63;;;;;23.20;100295.00;;;;2077135;28;20228;-54
2023/06/21 03:40:49;;;;;;;3.37;3.07;;;;;23.10;100294.00;;;;2085489;28;20216;-54
2023/06/21 03:41:49;;;;;;;4.77;3.97;;;;;23.10;100305.00;;;;2083073;28;20254;-54
2023/06/21 03:42:50;;;;;;;4.50;4.10;;;;;23.10;100298.00;;;;2081753;28;20216;-53
2023/06/21 03:43:50;;;;;;;5.57;3.97;;;;;23.20;100295.00;;;;2085718;28;20266;-54
2023/06/21 03:44:50;;;;;;;4.10;3.80;;;;;23.20;100302.00;;;;2072626;28;20244;-53
2023/06/21 03:45:51;;;;;;;4.33;3.93;;;;;23.20;100299.00;;;;2073419;28;20216;-53
2023/06/21 03:46:51;;;;;;;4.20;3.73;;;;;23.20;100303.00;;;;2076470;28;20220;-54
2023/06/21 03:47:51;;;;;;;4.93;3.87;;;;;23.20;100308.00;;;;2083632;28;20212;-53
2023/06/21 03:48:53;;;;;;;6.30;4.33;;;;;23.10;100302.00;;;;2082572;28;20220;-53
2023/06/21 03:49:57;;;;;;;6.80;4.35;;;;;23.10;100306.00;;;;2076176;28;20228;-53
2023/06/21 03:50:57;;;;;;;4.65;4.18;;;;;23.10;100302.00;;;;2085141;28;20238;-54
2023/06/21 03:51:58;;;;;;;4.67;3.50;;;;;23.10;100303.00;;;;2070769;28;20237;-53
2023/06/21 03:52:58;;;;;;;4.50;4.07;;;;;23.10;100306.00;;;;2073717;28;20245;-53
2023/06/21 03:53:58;;;;;;;5.10;4.63;;;;;23.10;100305.00;;;;2079164;28;20248;-54
2023/06/21 03:54:59;;;;;;;4.90;3.57;;;;;23.10;100302.00;;;;2074368;28;20225;-54
2023/06/21 03:55:59;;;;;;;4.07;3.67;;;;;23.20;100310.00;;;;2081803;28;20248;-54
2023/06/21 03:56:59;;;;;;;7.63;4.20;;;;;23.10;100313.00;;;;2082587;28;20274;-54
2023/06/21 03:58:00;;;;;;;4.23;3.70;;;;;23.10;100310.00;;;;2084713;28;20212;-54
2023/06/21 03:59:00;;;;;;;4.00;3.43;;;;;23.20;100308.00;;;;2086453;28;20283;-53
2023/06/21 04:00:00;;;;;;;6.13;3.80;;;;;23.10;100321.00;;;;2084292;28;20205;-54
2023/06/21 04:01:02;;;;;;;4.50;4.10;;;;;23.10;100324.00;;;;2078988;28;20248;-54
2023/06/21 04:02:03;;;;;;;4.32;3.90;;;;;23.20;100322.00;;;;2079936;28;20206;-54
2023/06/21 04:03:03;;;;;;;4.43;4.00;;;;;23.10;100317.00;;;;2083135;28;20204;-54
2023/06/21 04:04:04;;;;;;;4.93;4.20;;;;;23.20;100319.00;;;;2077436;28;20912;-53
2023/06/21 04:05:05;;;;;;;4.67;4.17;;;;;23.20;100321.00;;;;2065107;28;20675;-53
2023/06/21 04:06:05;;;;;;;5.05;4.53;;;;;22.90;100313.00;;;;2072816;28;20789;-53
2023/06/21 04:07:07;;;;;;;4.07;3.77;;;;;23.20;100324.00;;;;2080177;28;20215;-54
2023/06/21 04:08:07;;;;;;;4.00;3.33;;;;;23.20;100315.00;;;;2087232;28;20221;-54
2023/06/21 04:09:07;;;;;;;4.43;4.00;;;;;23.20;100319.00;;;;2085965;28;20236;-54
2023/06/21 04:10:09;;;;;;;5.57;4.43;;;;;23.20;100305.00;;;;2071582;28;20217;-54
2023/06/21 04:11:09;;;;;;;4.90;4.22;;;;;23.20;100311.00;;;;2080415;28;20221;-53
2023/06/21 04:12:10;;;;;;;5.50;4.60;;;;;23.20;100320.00;;;;2073235;28;20701;-53
2023/06/21 04:13:10;;;;;;;5.30;4.20;;;;;23.20;100318.00;;;;2074503;28;20221;-53
2023/06/21 04:14:11;;;;;;;5.00;4.60;;;;;23.20;100323.00;;;;2079288;28;20232;-53
2023/06/21 04:15:11;;;;;;;7.15;4.00;;;;;23.20;100325.00;;;;2069118;28;20677;-54
2023/06/21 04:16:12;;;;;;;5.93;3.97;;;;;23.20;100315.00;;;;2085952;28;20243;-54
2023/06/21 04:17:12;;;;;;;7.70;4.47;;;;;23.30;100315.00;;;;2084865;28;20220;-54
2023/06/21 04:18:12;;;;;;;5.20;3.93;;;;;23.30;100319.00;;;;2084458;28;20220;-54
2023/06/21 04:19:13;;;;;;;5.20;3.70;;;;;23.20;100321.00;;;;2081020;28;20221;-54
2023/06/21 04:20:15;;;;;;;4.20;3.80;;;;;23.30;100330.00;;;;2069536;28;20792;-54
2023/06/21 04:21:15;;;;;;;4.20;3.80;;;;;23.30;100321.00;;;;2080167;28;20287;-53
2023/06/21 04:22:15;;;;;;;4.57;4.17;;;;;23.30;100323.00;;;;2083746;28;20299;-54
2023/06/21 04:23:16;;;;;;;4.93;4.37;;;;;23.30;100320.00;;;;2085527;28;20224;-54
2023/06/21 04:24:16;;;;;;;6.03;4.27;;;;;23.30;100322.00;;;;2087129;28;20236;-53
2023/06/21 04:25:17;;;;;;;4.70;3.87;;;;;23.30;100325.00;;;;2073685;28;20651;-53
2023/06/21 04:26:17;;;;;;;6.07;4.17;;;;;23.20;100322.00;;;;2086465;28;20223;-57
2023/06/21 04:27:17;;;;;;;5.00;4.50;;;;;23.20;100323.00;;;;2081915;28;20205;-54
2023/06/21 04:28:18;;;;;;;5.10;4.00;;;;;23.20;100312.00;;;;2087389;28;20205;-55
2023/06/21 04:29:19;;;;;;;6.40;4.13;;;;;23.30;100325.00;;;;2087250;28;20208;-54
2023/06/21 04:30:20;;;;;;;6.53;3.95;;;;;23.30;100337.00;;;;2075283;28;20320;-54
2023/06/21 04:31:20;;;;;;;4.37;3.97;;;;;23.30;100336.00;;;;2086016;28;20240;-54
2023/06/21 04:32:20;;;;;;;4.40;4.00;;;;;23.30;100332.00;;;;2084488;28;20204;-54
2023/06/21 04:33:21;;;;;;;4.70;4.30;;;;;23.30;100335.00;;;;2082895;28;20258;-54
2023/06/21 04:34:22;;;;;;;4.20;3.80;;;;;23.30;100334.00;;;;2080535;28;20241;-54
2023/06/21 04:35:22;;;;;;;4.90;4.17;;;;;23.30;100341.00;;;;2067067;28;20225;-54
2023/06/21 04:36:24;;;;;;;4.53;4.13;;;;;23.30;100344.00;;;;2083601;28;21347;-53
2023/06/21 04:37:25;;;;;;;3.78;3.47;;;;;23.30;100337.00;;;;2080272;28;20224;-53
2023/06/21 04:38:25;;;;;;;5.10;3.60;;;;;23.30;100340.00;;;;2083961;28;20212;-53
2023/06/21 04:39:26;;;;;;;4.57;4.13;;;;;23.30;100347.00;;;;2083066;28;20551;-53
2023/06/21 04:40:26;;;;;;;5.40;4.20;;;;;23.40;100341.00;;;;2068967;28;20240;-53
2023/06/21 04:41:26;;;;;;;4.87;4.13;;;;;23.40;100344.00;;;;2085114;28;20912;-53
2023/06/21 04:42:27;;;;;;;4.03;3.63;;;;;23.40;100346.00;;;;2078644;28;20745;-53
2023/06/21 04:43:27;;;;;;;4.67;4.17;;;;;23.40;100347.00;;;;2085443;28;20228;-53
2023/06/21 04:44:27;;;;;;;5.00;4.50;;;;;23.40;100348.00;;;;2085354;28;20220;-55
2023/06/21 04:45:30;;;;;;;5.70;4.07;;;;;23.40;100350.00;;;;2076907;28;20244;-54
2023/06/21 04:46:30;;;;;;;5.10;4.22;;;;;23.40;100346.00;;;;2077886;28;20252;-53
2023/06/21 04:47:31;;;;;;;4.33;3.93;;;;;23.50;100348.00;;;;2077601;28;20214;-53
2023/06/21 04:48:31;;;;;;;5.13;4.40;;;;;23.50;100354.00;;;;2084867;28;20216;-54
2023/06/21 04:49:31;;;;;;;4.57;4.17;;;;;23.50;100352.00;;;;2082714;28;20214;-54
2023/06/21 04:50:32;;;;;;;4.93;4.37;;;;;23.40;100350.00;;;;2075107;28;20237;-54
2023/06/21 04:51:32;;;;;;;5.50;4.07;;;;;23.40;100362.00;;;;2083816;28;20217;-54
2023/06/21 04:52:32;;;;;;;6.57;4.70;;;;;23.40;100357.00;;;;2077843;28;20287;-54
2023/06/21 04:53:33;;;;;;;4.80;4.30;;;;;23.40;100349.00;;;;2081106;28;20267;-54
2023/06/21 04:54:33;;;;;;;4.80;4.30;;;;;23.40;100353.00;;;;2081427;28;20339;-54
2023/06/21 04:55:34;;;;;;;4.63;4.00;;;;;23.40;100347.00;;;;2074882;28;20259;-54
2023/06/21 04:56:35;;;;;;;5.50;5.00;;;;;23.50;100352.00;;;;2085465;28;20240;-54
2023/06/21 04:57:36;;;;;;;5.95;5.15;;;;;23.50;100350.00;;;;2078999;28;20698;-54
2023/06/21 04:58:38;;;;;;;4.80;4.40;;;;;23.40;100348.00;;;;2083958;28;20231;-55
2023/06/21 04:59:39;;;;;;;5.43;4.28;;;;;23.50;100354.00;;;;2083615;28;20235;-54
2023/06/21 05:00:40;;;;;;;5.47;4.90;;;;;23.50;100354.00;;;;2075383;28;20220;-54
2023/06/21 05:01:40;;;;;;;5.97;4.80;;;;;23.50;100350.00;;;;2077384;28;20497;-55
2023/06/21 05:02:40;;;;;;;5.73;3.87;;;;;23.50;100372.00;;;;2078079;28;20636;-54
2023/06/21 05:03:41;;;;;;;5.67;4.67;;;;;23.50;100367.00;;;;2078942;28;20636;-55
2023/06/21 05:04:42;;;;;;;4.55;4.15;;;;;23.50;100353.00;;;;2069237;28;20301;-55